sensor_id;sensor_type;location;lat;lon;timestamp;pressure;altitude;pressure_sealevel;temperature;humidity
71043;BME280;58696;52.134;5.500;2023-04-06T00:01:40;101996.72;;;2.44;72.51
71043;BME280;58696;52.134;5.500;2023-04-06T00:04:09;101996.81;;;2.43;72.35
71043;BME280;58696;52.134;5.500;2023-04-06T00:06:38;101991.22;;;2.37;72.31
71043;BME280;58696;52.134;5.500;2023-04-06T00:09:07;101998.66;;;2.41;72.30
71043;BME280;58696;52.134;5.500;2023-04-06T00:11:36;101989.09;;;2.44;71.85
71043;BME280;58696;52.134;5.500;2023-04-06T00:14:05;101985.56;;;2.47;72.12
71043;BME280;58696;52.134;5.500;2023-04-06T00:16:36;101984.47;;;2.51;72.19
71043;BME280;58696;52.134;5.500;2023-04-06T00:19:03;101987.88;;;2.50;72.13
71043;BME280;58696;52.134;5.500;2023-04-06T00:21:34;101982.22;;;2.46;72.10
71043;BME280;58696;52.134;5.500;2023-04-06T00:24:01;101985.75;;;2.44;72.28
71043;BME280;58696;52.134;5.500;2023-04-06T00:26:41;101979.97;;;2.42;72.19
71043;BME280;58696;52.134;5.500;2023-04-06T00:29:08;101981.91;;;2.38;72.17
71043;BME280;58696;52.134;5.500;2023-04-06T00:31:34;101977.63;;;2.38;72.43
71043;BME280;58696;52.134;5.500;2023-04-06T00:34:01;101970.44;;;2.32;72.61
71043;BME280;58696;52.134;5.500;2023-04-06T00:36:30;101964.84;;;2.27;72.59
71043;BME280;58696;52.134;5.500;2023-04-06T00:38:57;101963.13;;;2.28;72.57
71043;BME280;58696;52.134;5.500;2023-04-06T00:41:24;101962.41;;;2.26;72.48
71043;BME280;58696;52.134;5.500;2023-04-06T00:43:50;101963.31;;;2.25;72.59
71043;BME280;58696;52.134;5.500;2023-04-06T00:46:20;101957.53;;;2.23;72.54
71043;BME280;58696;52.134;5.500;2023-04-06T00:48:46;101952.44;;;2.23;72.60
71043;BME280;58696;52.134;5.500;2023-04-06T00:51:13;101953.59;;;2.19;72.58
71043;BME280;58696;52.134;5.500;2023-04-06T00:53:39;101951.13;;;2.17;72.63
71043;BME280;58696;52.134;5.500;2023-04-06T00:56:09;101956.59;;;2.11;72.87
71043;BME280;58696;52.134;5.500;2023-04-06T00:58:38;101944.84;;;2.10;73.07
71043;BME280;58696;52.134;5.500;2023-04-06T01:01:09;101950.94;;;2.07;73.17
71043;BME280;58696;52.134;5.500;2023-04-06T01:03:36;101936.19;;;2.00;73.36
71043;BME280;58696;52.134;5.500;2023-04-06T01:06:02;101933.59;;;2.01;73.67
71043;BME280;58696;52.134;5.500;2023-04-06T01:08:29;101934.59;;;1.99;73.54
71043;BME280;58696;52.134;5.500;2023-04-06T01:10:55;101939.25;;;1.92;73.85
71043;BME280;58696;52.134;5.500;2023-04-06T01:13:24;101926.84;;;1.88;74.06
71043;BME280;58696;52.134;5.500;2023-04-06T01:15:51;101921.47;;;1.79;74.00
71043;BME280;58696;52.134;5.500;2023-04-06T01:18:26;101922.56;;;1.75;74.22
71043;BME280;58696;52.134;5.500;2023-04-06T01:20:55;101923.50;;;1.74;74.56
71043;BME280;58696;52.134;5.500;2023-04-06T01:23:22;101910.81;;;1.74;74.44
71043;BME280;58696;52.134;5.500;2023-04-06T01:25:48;101918.22;;;1.77;74.38
71043;BME280;58696;52.134;5.500;2023-04-06T01:28:15;101913.66;;;1.82;74.57
71043;BME280;58696;52.134;5.500;2023-04-06T01:30:43;101912.84;;;1.82;74.68
71043;BME280;58696;52.134;5.500;2023-04-06T01:33:10;101909.28;;;1.84;75.01
71043;BME280;58696;52.134;5.500;2023-04-06T01:35:39;101909.22;;;1.86;74.63
71043;BME280;58696;52.134;5.500;2023-04-06T01:38:10;101909.00;;;1.89;74.52
71043;BME280;58696;52.134;5.500;2023-04-06T01:40:37;101901.31;;;1.91;74.25
71043;BME280;58696;52.134;5.500;2023-04-06T01:43:03;101899.50;;;1.93;74.29
71043;BME280;58696;52.134;5.500;2023-04-06T01:45:30;101898.16;;;2.00;73.88
71043;BME280;58696;52.134;5.500;2023-04-06T01:47:57;101898.00;;;2.03;73.78
71043;BME280;58696;52.134;5.500;2023-04-06T01:50:23;101892.00;;;2.04;73.61
71043;BME280;58696;52.134;5.500;2023-04-06T01:52:52;101887.63;;;2.06;73.57
71043;BME280;58696;52.134;5.500;2023-04-06T01:55:19;101888.66;;;2.03;73.77
71043;BME280;58696;52.134;5.500;2023-04-06T01:57:48;101885.59;;;2.11;73.85
71043;BME280;58696;52.134;5.500;2023-04-06T02:00:15;101887.72;;;2.17;73.36
71043;BME280;58696;52.134;5.500;2023-04-06T02:02:42;101873.66;;;2.26;72.87
71043;BME280;58696;52.134;5.500;2023-04-06T02:05:09;101878.19;;;2.33;72.23
71043;BME280;58696;52.134;5.500;2023-04-06T02:07:35;101874.34;;;2.41;72.05
71043;BME280;58696;52.134;5.500;2023-04-06T02:10:02;101874.84;;;2.46;71.79
71043;BME280;58696;52.134;5.500;2023-04-06T02:12:31;101871.19;;;2.50;71.57
71043;BME280;58696;52.134;5.500;2023-04-06T02:14:58;101866.63;;;2.42;71.41
71043;BME280;58696;52.134;5.500;2023-04-06T02:17:30;101869.78;;;2.33;72.03
71043;BME280;58696;52.134;5.500;2023-04-06T02:19:58;101863.91;;;2.32;72.46
71043;BME280;58696;52.134;5.500;2023-04-06T02:22:27;101860.66;;;2.30;73.37
71043;BME280;58696;52.134;5.500;2023-04-06T02:24:54;101858.50;;;2.37;73.49
71043;BME280;58696;52.134;5.500;2023-04-06T02:27:20;101860.25;;;2.36;73.41
71043;BME280;58696;52.134;5.500;2023-04-06T02:29:47;101852.75;;;2.35;73.65
71043;BME280;58696;52.134;5.500;2023-04-06T02:32:13;101850.78;;;2.38;73.34
71043;BME280;58696;52.134;5.500;2023-04-06T02:34:40;101849.06;;;2.39;73.15
71043;BME280;58696;52.134;5.500;2023-04-06T02:37:06;101848.97;;;2.41;73.18
71043;BME280;58696;52.134;5.500;2023-04-06T02:39:40;101846.34;;;2.42;73.01
71043;BME280;58696;52.134;5.500;2023-04-06T02:42:09;101844.09;;;2.50;72.48
71043;BME280;58696;52.134;5.500;2023-04-06T02:44:35;101844.56;;;2.55;72.37
71043;BME280;58696;52.134;5.500;2023-04-06T02:47:05;101846.09;;;2.58;72.35
71043;BME280;58696;52.134;5.500;2023-04-06T02:49:31;101834.91;;;2.60;72.19
71043;BME280;58696;52.134;5.500;2023-04-06T02:51:58;101836.13;;;2.68;71.89
71043;BME280;58696;52.134;5.500;2023-04-06T02:54:30;101821.59;;;2.70;71.71
71043;BME280;58696;52.134;5.500;2023-04-06T02:56:59;101824.03;;;2.71;71.53
71043;BME280;58696;52.134;5.500;2023-04-06T02:59:25;101825.69;;;2.72;71.46
71043;BME280;58696;52.134;5.500;2023-04-06T03:01:52;101822.22;;;2.73;71.47
71043;BME280;58696;52.134;5.500;2023-04-06T03:04:19;101821.09;;;2.77;71.48
71043;BME280;58696;52.134;5.500;2023-04-06T03:06:48;101820.88;;;2.80;71.27
71043;BME280;58696;52.134;5.500;2023-04-06T03:09:17;101820.75;;;2.82;71.08
71043;BME280;58696;52.134;5.500;2023-04-06T03:11:43;101819.03;;;2.82;71.06
71043;BME280;58696;52.134;5.500;2023-04-06T03:14:10;101813.03;;;2.83;71.29
71043;BME280;58696;52.134;5.500;2023-04-06T03:16:36;101813.94;;;2.82;71.53
71043;BME280;58696;52.134;5.500;2023-04-06T03:19:05;101818.31;;;2.80;71.76
71043;BME280;58696;52.134;5.500;2023-04-06T03:21:32;101818.31;;;2.80;71.73
71043;BME280;58696;52.134;5.500;2023-04-06T03:23:58;101808.97;;;2.81;71.82
71043;BME280;58696;52.134;5.500;2023-04-06T03:26:25;101809.69;;;2.83;72.13
71043;BME280;58696;52.134;5.500;2023-04-06T03:28:52;101808.78;;;2.84;72.00
71043;BME280;58696;52.134;5.500;2023-04-06T03:31:18;101801.16;;;2.84;72.20
71043;BME280;58696;52.134;5.500;2023-04-06T03:33:45;101801.97;;;2.84;72.10
71043;BME280;58696;52.134;5.500;2023-04-06T03:36:12;101806.00;;;2.87;72.05
71043;BME280;58696;52.134;5.500;2023-04-06T03:38:38;101800.00;;;2.88;71.94
71043;BME280;58696;52.134;5.500;2023-04-06T03:41:06;101799.31;;;2.86;72.14
71043;BME280;58696;52.134;5.500;2023-04-06T03:43:38;101793.13;;;2.90;72.15
71043;BME280;58696;52.134;5.500;2023-04-06T03:46:09;101795.41;;;2.93;71.93
71043;BME280;58696;52.134;5.500;2023-04-06T03:48:36;101785.06;;;2.96;71.82
71043;BME280;58696;52.134;5.500;2023-04-06T03:51:05;101785.88;;;2.97;71.72
71043;BME280;58696;52.134;5.500;2023-04-06T03:53:34;101786.56;;;2.99;71.75
71043;BME280;58696;52.134;5.500;2023-04-06T03:56:02;101779.06;;;2.97;71.89
71043;BME280;58696;52.134;5.500;2023-04-06T03:58:30;101774.09;;;2.96;72.19
71043;BME280;58696;52.134;5.500;2023-04-06T04:00:59;101778.47;;;2.94;72.22
71043;BME280;58696;52.134;5.500;2023-04-06T04:03:26;101784.25;;;2.96;72.41
71043;BME280;58696;52.134;5.500;2023-04-06T04:05:56;101781.81;;;2.94;72.20
71043;BME280;58696;52.134;5.500;2023-04-06T04:08:24;101779.84;;;2.98;72.13
71043;BME280;58696;52.134;5.500;2023-04-06T04:10:51;101784.94;;;2.98;72.14
71043;BME280;58696;52.134;5.500;2023-04-06T04:13:17;101784.84;;;2.99;72.12
71043;BME280;58696;52.134;5.500;2023-04-06T04:15:47;101789.56;;;3.04;71.87
71043;BME280;58696;52.134;5.500;2023-04-06T04:18:14;101780.81;;;3.08;71.86
71043;BME280;58696;52.134;5.500;2023-04-06T04:20:42;101787.53;;;3.09;71.58
71043;BME280;58696;52.134;5.500;2023-04-06T04:23:12;101779.22;;;3.07;71.66
71043;BME280;58696;52.134;5.500;2023-04-06T04:25:39;101772.03;;;3.01;71.68
71043;BME280;58696;52.134;5.500;2023-04-06T04:28:05;101779.06;;;2.97;71.99
71043;BME280;58696;52.134;5.500;2023-04-06T04:30:38;101774.41;;;2.91;72.07
71043;BME280;58696;52.134;5.500;2023-04-06T04:33:05;101789.75;;;2.89;72.31
71043;BME280;58696;52.134;5.500;2023-04-06T04:35:36;101784.09;;;2.86;72.71
71043;BME280;58696;52.134;5.500;2023-04-06T04:38:02;101790.88;;;2.85;72.68
71043;BME280;58696;52.134;5.500;2023-04-06T04:40:30;101782.59;;;2.83;72.81
71043;BME280;58696;52.134;5.500;2023-04-06T04:42:59;101780.13;;;2.82;72.61
71043;BME280;58696;52.134;5.500;2023-04-06T04:45:26;101782.78;;;2.80;72.56
71043;BME280;58696;52.134;5.500;2023-04-06T04:47:52;101783.47;;;2.82;72.62
71043;BME280;58696;52.134;5.500;2023-04-06T04:50:19;101779.25;;;2.83;72.32
71043;BME280;58696;52.134;5.500;2023-04-06T04:52:50;101775.78;;;2.84;72.30
71043;BME280;58696;52.134;5.500;2023-04-06T04:55:21;101776.59;;;2.84;72.33
71043;BME280;58696;52.134;5.500;2023-04-06T04:57:50;101774.16;;;2.83;72.44
71043;BME280;58696;52.134;5.500;2023-04-06T05:00:19;101774.25;;;2.81;72.56
71043;BME280;58696;52.134;5.500;2023-04-06T05:02:47;101774.47;;;2.78;72.64
71043;BME280;58696;52.134;5.500;2023-04-06T05:05:16;101780.25;;;2.80;72.77
71043;BME280;58696;52.134;5.500;2023-04-06T05:07:47;101770.91;;;2.81;72.71
71043;BME280;58696;52.134;5.500;2023-04-06T05:10:14;101774.84;;;2.85;72.61
71043;BME280;58696;52.134;5.500;2023-04-06T05:12:41;101771.28;;;2.87;72.38
71043;BME280;58696;52.134;5.500;2023-04-06T05:15:08;101771.19;;;2.89;72.43
71043;BME280;58696;52.134;5.500;2023-04-06T05:17:35;101770.16;;;2.92;72.38
71043;BME280;58696;52.134;5.500;2023-04-06T05:20:04;101769.81;;;2.96;72.53
71043;BME280;58696;52.134;5.500;2023-04-06T05:22:35;101768.56;;;3.02;72.66
71043;BME280;58696;52.134;5.500;2023-04-06T05:25:02;101767.31;;;3.07;72.64
71043;BME280;58696;52.134;5.500;2023-04-06T05:27:29;101768.63;;;3.13;72.70
71043;BME280;58696;52.134;5.500;2023-04-06T05:29:56;101771.63;;;3.18;72.45
71043;BME280;58696;52.134;5.500;2023-04-06T05:32:23;101763.44;;;3.26;72.55
71043;BME280;58696;52.134;5.500;2023-04-06T05:34:51;101756.09;;;3.34;72.23
71043;BME280;58696;52.134;5.500;2023-04-06T05:37:17;101764.78;;;3.42;72.34
71043;BME280;58696;52.134;5.500;2023-04-06T05:39:44;101764.34;;;3.49;72.15
71043;BME280;58696;52.134;5.500;2023-04-06T05:42:11;101755.91;;;3.59;72.23
71043;BME280;58696;52.134;5.500;2023-04-06T05:44:40;101762.03;;;3.68;71.96
71043;BME280;58696;52.134;5.500;2023-04-06T05:47:06;101753.13;;;3.74;71.52
71043;BME280;58696;52.134;5.500;2023-04-06T05:49:33;101749.00;;;3.84;71.43
71043;BME280;58696;52.134;5.500;2023-04-06T05:51:59;101751.88;;;3.90;71.21
71043;BME280;58696;52.134;5.500;2023-04-06T05:54:26;101751.78;;;4.03;71.10
71043;BME280;58696;52.134;5.500;2023-04-06T05:56:55;101747.66;;;4.34;70.95
71043;BME280;58696;52.134;5.500;2023-04-06T05:59:24;101746.22;;;4.96;69.96
71043;BME280;58696;52.134;5.500;2023-04-06T06:01:51;101745.81;;;5.12;68.74
71043;BME280;58696;52.134;5.500;2023-04-06T06:04:20;101741.00;;;4.97;69.10
71043;BME280;58696;52.134;5.500;2023-04-06T06:06:47;101747.53;;;4.90;68.86
71043;BME280;58696;52.134;5.500;2023-04-06T06:09:13;101742.88;;;4.95;68.90
71043;BME280;58696;52.134;5.500;2023-04-06T06:11:40;101744.78;;;5.03;68.52
71043;BME280;58696;52.134;5.500;2023-04-06T06:14:09;101747.84;;;5.18;67.55
71043;BME280;58696;52.134;5.500;2023-04-06T06:16:36;101739.28;;;5.19;67.40
71043;BME280;58696;52.134;5.500;2023-04-06T06:19:02;101745.97;;;5.41;67.11
71043;BME280;58696;52.134;5.500;2023-04-06T06:21:29;101745.22;;;5.80;65.83
71043;BME280;58696;52.134;5.500;2023-04-06T06:23:57;101737.28;;;6.04;65.08
71043;BME280;58696;52.134;5.500;2023-04-06T06:26:26;101736.44;;;5.94;65.03
71043;BME280;58696;52.134;5.500;2023-04-06T06:28:55;101743.16;;;5.95;65.27
71043;BME280;58696;52.134;5.500;2023-04-06T06:31:26;101739.16;;;5.72;65.55
71043;BME280;58696;52.134;5.500;2023-04-06T06:33:52;101742.41;;;5.53;66.65
71043;BME280;58696;52.134;5.500;2023-04-06T06:36:21;101748.38;;;5.42;66.77
71043;BME280;58696;52.134;5.500;2023-04-06T06:38:49;101739.88;;;5.32;66.71
71043;BME280;58696;52.134;5.500;2023-04-06T06:41:18;101745.22;;;5.29;66.92
71043;BME280;58696;52.134;5.500;2023-04-06T06:43:44;101739.44;;;5.27;67.25
71043;BME280;58696;52.134;5.500;2023-04-06T06:46:11;101746.84;;;5.30;67.01
71043;BME280;58696;52.134;5.500;2023-04-06T06:48:38;101738.13;;;5.33;67.15
71043;BME280;58696;52.134;5.500;2023-04-06T06:51:07;101734.97;;;5.40;67.45
71043;BME280;58696;52.134;5.500;2023-04-06T06:53:40;101740.13;;;5.50;67.45
71043;BME280;58696;52.134;5.500;2023-04-06T06:56:06;101738.16;;;5.63;67.16
71043;BME280;58696;52.134;5.500;2023-04-06T06:58:33;101733.53;;;5.78;67.32
71043;BME280;58696;52.134;5.500;2023-04-06T07:01:02;101742.09;;;5.98;67.33
71043;BME280;58696;52.134;5.500;2023-04-06T07:03:28;101730.47;;;6.15;66.18
71043;BME280;58696;52.134;5.500;2023-04-06T07:05:57;101743.41;;;6.32;65.55
71043;BME280;58696;52.134;5.500;2023-04-06T07:08:24;101734.31;;;6.59;64.76
71043;BME280;58696;52.134;5.500;2023-04-06T07:10:54;101737.78;;;6.68;64.05
71043;BME280;58696;52.134;5.500;2023-04-06T07:13:27;101736.31;;;6.55;64.34
71043;BME280;58696;52.134;5.500;2023-04-06T07:15:54;101734.28;;;6.49;65.26
71043;BME280;58696;52.134;5.500;2023-04-06T07:18:22;101733.59;;;6.38;65.36
71043;BME280;58696;52.134;5.500;2023-04-06T07:20:51;101738.44;;;6.31;65.36
71043;BME280;58696;52.134;5.500;2023-04-06T07:23:18;101731.56;;;6.22;65.36
71043;BME280;58696;52.134;5.500;2023-04-06T07:25:44;101729.16;;;6.20;65.47
71043;BME280;58696;52.134;5.500;2023-04-06T07:28:14;101721.72;;;6.17;65.42
71043;BME280;58696;52.134;5.500;2023-04-06T07:30:40;101720.25;;;6.15;66.39
71043;BME280;58696;52.134;5.500;2023-04-06T07:33:09;101714.31;;;6.14;66.28
71043;BME280;58696;52.134;5.500;2023-04-06T07:35:36;101726.03;;;6.17;66.20
71043;BME280;58696;52.134;5.500;2023-04-06T07:38:03;101730.34;;;6.16;66.36
71043;BME280;58696;52.134;5.500;2023-04-06T07:40:32;101727.91;;;6.15;66.41
71043;BME280;58696;52.134;5.500;2023-04-06T07:43:01;101727.09;;;6.14;66.07
71043;BME280;58696;52.134;5.500;2023-04-06T07:45:30;101726.84;;;6.17;66.97
71043;BME280;58696;52.134;5.500;2023-04-06T07:47:58;101723.09;;;6.21;66.88
71043;BME280;58696;52.134;5.500;2023-04-06T07:50:24;101722.81;;;6.24;66.78
71043;BME280;58696;52.134;5.500;2023-04-06T07:52:53;101728.34;;;6.29;67.08
71043;BME280;58696;52.134;5.500;2023-04-06T07:55:20;101730.34;;;6.36;66.68
71043;BME280;58696;52.134;5.500;2023-04-06T07:57:50;101723.91;;;6.41;66.89
71043;BME280;58696;52.134;5.500;2023-04-06T08:00:19;101720.97;;;6.46;67.21
71043;BME280;58696;52.134;5.500;2023-04-06T08:02:46;101724.88;;;6.50;66.88
71043;BME280;58696;52.134;5.500;2023-04-06T08:05:13;101727.69;;;6.56;67.26
71043;BME280;58696;52.134;5.500;2023-04-06T08:07:42;101719.50;;;6.63;65.90
71043;BME280;58696;52.134;5.500;2023-04-06T08:10:09;101719.66;;;6.71;66.33
71043;BME280;58696;52.134;5.500;2023-04-06T08:12:35;101723.13;;;6.79;66.62
71043;BME280;58696;52.134;5.500;2023-04-06T08:15:05;101720.31;;;6.92;66.43
71043;BME280;58696;52.134;5.500;2023-04-06T08:17:32;101729.03;;;7.09;66.46
71043;BME280;58696;52.134;5.500;2023-04-06T08:20:00;101727.91;;;7.21;65.97
71043;BME280;58696;52.134;5.500;2023-04-06T08:22:27;101728.84;;;7.30;66.00
71043;BME280;58696;52.134;5.500;2023-04-06T08:24:53;101727.66;;;7.34;65.78
71043;BME280;58696;52.134;5.500;2023-04-06T08:27:20;101728.84;;;7.40;65.82
71043;BME280;58696;52.134;5.500;2023-04-06T08:29:48;101721.03;;;7.41;65.93
71043;BME280;58696;52.134;5.500;2023-04-06T08:32:18;101720.34;;;7.39;65.55
71043;BME280;58696;52.134;5.500;2023-04-06T08:34:44;101717.94;;;7.37;64.77
71043;BME280;58696;52.134;5.500;2023-04-06T08:37:13;101728.44;;;7.34;65.13
71043;BME280;58696;52.134;5.500;2023-04-06T08:39:40;101726.81;;;7.33;64.57
71043;BME280;58696;52.134;5.500;2023-04-06T08:42:28;101714.88;;;7.34;64.78
71043;BME280;58696;52.134;5.500;2023-04-06T08:45:00;101706.75;;;7.38;65.41
71043;BME280;58696;52.134;5.500;2023-04-06T08:47:29;101710.50;;;7.44;64.78
71043;BME280;58696;52.134;5.500;2023-04-06T08:49:56;101708.75;;;7.45;64.41
71043;BME280;58696;52.134;5.500;2023-04-06T08:52:25;101704.97;;;7.49;64.67
71043;BME280;58696;52.134;5.500;2023-04-06T08:54:55;101707.03;;;7.45;63.73
71043;BME280;58696;52.134;5.500;2023-04-06T08:57:24;101710.66;;;7.43;65.17
71043;BME280;58696;52.134;5.500;2023-04-06T08:59:54;101711.19;;;7.46;65.06
71043;BME280;58696;52.134;5.500;2023-04-06T09:02:22;101711.56;;;7.51;65.66
71043;BME280;58696;52.134;5.500;2023-04-06T09:04:54;101717.06;;;7.56;64.63
71043;BME280;58696;52.134;5.500;2023-04-06T09:07:21;101720.13;;;7.60;64.92
71043;BME280;58696;52.134;5.500;2023-04-06T09:09:48;101728.34;;;7.63;65.14
71043;BME280;58696;52.134;5.500;2023-04-06T09:12:28;101716.97;;;7.76;64.05
71043;BME280;58696;52.134;5.500;2023-04-06T09:14:55;101717.34;;;7.81;64.10
71043;BME280;58696;52.134;5.500;2023-04-06T09:17:24;101723.25;;;7.91;65.51
71043;BME280;58696;52.134;5.500;2023-04-06T09:19:54;101717.84;;;7.94;64.34
71043;BME280;58696;52.134;5.500;2023-04-06T09:22:22;101722.53;;;7.99;64.83
71043;BME280;58696;52.134;5.500;2023-04-06T09:24:52;101715.97;;;8.14;64.11
71043;BME280;58696;52.134;5.500;2023-04-06T09:27:36;101726.25;;;8.32;64.19
71043;BME280;58696;52.134;5.500;2023-04-06T09:30:10;101724.16;;;8.45;64.33
71043;BME280;58696;52.134;5.500;2023-04-06T09:32:52;101721.31;;;8.66;63.47
71043;BME280;58696;52.134;5.500;2023-04-06T09:35:19;101717.16;;;8.65;63.53
71043;BME280;58696;52.134;5.500;2023-04-06T09:37:51;101719.56;;;8.66;63.92
71043;BME280;58696;52.134;5.500;2023-04-06T09:40:21;101712.81;;;8.65;63.85
71043;BME280;58696;52.134;5.500;2023-04-06T09:42:52;101712.16;;;8.63;63.77
71043;BME280;58696;52.134;5.500;2023-04-06T09:45:20;101715.97;;;8.59;63.60
71043;BME280;58696;52.134;5.500;2023-04-06T09:47:50;101714.94;;;8.52;65.14
71043;BME280;58696;52.134;5.500;2023-04-06T09:50:20;101718.44;;;8.51;64.64
71043;BME280;58696;52.134;5.500;2023-04-06T09:52:53;101720.06;;;8.52;64.98
71043;BME280;58696;52.134;5.500;2023-04-06T09:55:30;101711.28;;;8.55;65.32
71043;BME280;58696;52.134;5.500;2023-04-06T09:58:10;101724.97;;;8.63;65.64
71043;BME280;58696;52.134;5.500;2023-04-06T10:00:52;101719.47;;;8.76;65.29
71043;BME280;58696;52.134;5.500;2023-04-06T10:06:05;101707.91;;;9.16;64.62
71043;BME280;58696;52.134;5.500;2023-04-06T10:08:35;101720.19;;;9.30;65.83
71043;BME280;58696;52.134;5.500;2023-04-06T10:11:08;101719.78;;;9.51;64.75
71043;BME280;58696;52.134;5.500;2023-04-06T10:13:35;101717.72;;;9.55;64.79
71043;BME280;58696;52.134;5.500;2023-04-06T10:16:02;101721.41;;;9.52;63.61
71043;BME280;58696;52.134;5.500;2023-04-06T10:18:32;101724.41;;;9.73;64.34
71043;BME280;58696;52.134;5.500;2023-04-06T10:21:08;101729.56;;;9.82;64.00
71043;BME280;58696;52.134;5.500;2023-04-06T10:26:16;101724.41;;;9.82;64.40
71043;BME280;58696;52.134;5.500;2023-04-06T10:28:45;101720.69;;;9.76;65.08
71043;BME280;58696;52.134;5.500;2023-04-06T10:31:15;101727.09;;;9.72;65.76
71043;BME280;58696;52.134;5.500;2023-04-06T10:33:42;101727.91;;;9.72;66.15
71043;BME280;58696;52.134;5.500;2023-04-06T10:36:25;101714.78;;;9.75;66.00
71043;BME280;58696;52.134;5.500;2023-04-06T10:39:13;101725.03;;;9.75;65.82
71043;BME280;58696;52.134;5.500;2023-04-06T10:41:43;101716.19;;;9.70;66.77
71043;BME280;58696;52.134;5.500;2023-04-06T10:44:20;101726.13;;;9.65;67.05
71043;BME280;58696;52.134;5.500;2023-04-06T10:46:57;101720.44;;;9.53;68.10
71043;BME280;58696;52.134;5.500;2023-04-06T10:49:31;101719.47;;;9.46;68.11
71043;BME280;58696;52.134;5.500;2023-04-06T10:51:58;101716.81;;;9.30;69.21
71043;BME280;58696;52.134;5.500;2023-04-06T10:54:26;101717.69;;;9.20;70.66
71043;BME280;58696;52.134;5.500;2023-04-06T10:56:55;101711.56;;;9.13;72.24
71043;BME280;58696;52.134;5.500;2023-04-06T10:59:22;101721.94;;;9.04;72.82
71043;BME280;58696;52.134;5.500;2023-04-06T11:01:52;101718.47;;;8.95;74.27
71043;BME280;58696;52.134;5.500;2023-04-06T11:04:22;101715.63;;;8.98;74.48
71043;BME280;58696;52.134;5.500;2023-04-06T11:06:50;101711.31;;;8.99;74.74
71043;BME280;58696;52.134;5.500;2023-04-06T11:09:27;101715.28;;;8.93;75.44
71043;BME280;58696;52.134;5.500;2023-04-06T11:11:54;101714.91;;;8.88;75.92
71043;BME280;58696;52.134;5.500;2023-04-06T11:14:22;101705.53;;;8.79;75.87
71043;BME280;58696;52.134;5.500;2023-04-06T11:16:50;101710.91;;;8.67;76.81
71043;BME280;58696;52.134;5.500;2023-04-06T11:19:17;101711.50;;;8.61;76.97
71043;BME280;58696;52.134;5.500;2023-04-06T11:21:46;101710.19;;;8.57;78.11
71043;BME280;58696;52.134;5.500;2023-04-06T11:24:20;101709.38;;;8.57;78.33
71043;BME280;58696;52.134;5.500;2023-04-06T11:26:49;101707.41;;;8.51;78.60
71043;BME280;58696;52.134;5.500;2023-04-06T11:29:18;101702.13;;;8.52;78.51
71043;BME280;58696;52.134;5.500;2023-04-06T11:31:49;101700.94;;;8.47;78.88
71043;BME280;58696;52.134;5.500;2023-04-06T11:34:18;101703.16;;;8.41;79.82
71043;BME280;58696;52.134;5.500;2023-04-06T11:36:55;101697.44;;;8.48;80.61
71043;BME280;58696;52.134;5.500;2023-04-06T11:39:26;101692.03;;;8.51;80.41
71043;BME280;58696;52.134;5.500;2023-04-06T11:41:58;101691.03;;;8.43;80.16
71043;BME280;58696;52.134;5.500;2023-04-06T11:44:45;101682.91;;;8.48;80.33
71043;BME280;58696;52.134;5.500;2023-04-06T11:47:15;101687.50;;;8.45;80.10
71043;BME280;58696;52.134;5.500;2023-04-06T11:49:46;101680.25;;;8.40;80.92
71043;BME280;58696;52.134;5.500;2023-04-06T11:52:23;101681.84;;;8.41;81.17
71043;BME280;58696;52.134;5.500;2023-04-06T11:54:51;101676.25;;;8.37;81.21
71043;BME280;58696;52.134;5.500;2023-04-06T11:57:19;101680.81;;;8.34;80.72
71043;BME280;58696;52.134;5.500;2023-04-06T11:59:46;101677.22;;;8.27;80.86
71043;BME280;58696;52.134;5.500;2023-04-06T12:02:13;101672.81;;;8.19;80.50
71043;BME280;58696;52.134;5.500;2023-04-06T12:04:44;101678.75;;;8.20;80.86
71043;BME280;58696;52.134;5.500;2023-04-06T12:07:11;101660.38;;;8.24;81.33
71043;BME280;58696;52.134;5.500;2023-04-06T12:09:40;101662.66;;;8.27;81.42
71043;BME280;58696;52.134;5.500;2023-04-06T12:12:09;101665.72;;;8.31;81.59
71043;BME280;58696;52.134;5.500;2023-04-06T12:14:35;101658.16;;;8.39;81.33
71043;BME280;58696;52.134;5.500;2023-04-06T12:17:04;101667.97;;;8.43;81.13
71043;BME280;58696;52.134;5.500;2023-04-06T12:19:31;101662.97;;;8.42;81.10
71043;BME280;58696;52.134;5.500;2023-04-06T12:22:00;101663.84;;;8.33;80.93
71043;BME280;58696;52.134;5.500;2023-04-06T12:24:30;101657.03;;;8.24;81.25
71043;BME280;58696;52.134;5.500;2023-04-06T12:26:57;101648.31;;;8.16;81.17
71043;BME280;58696;52.134;5.500;2023-04-06T12:29:34;101653.44;;;8.16;81.20
71043;BME280;58696;52.134;5.500;2023-04-06T12:32:04;101649.41;;;8.14;81.63
71043;BME280;58696;52.134;5.500;2023-04-06T12:34:31;101647.59;;;8.06;81.89
71043;BME280;58696;52.134;5.500;2023-04-06T12:36:58;101643.91;;;8.09;82.04
71043;BME280;58696;52.134;5.500;2023-04-06T12:39:27;101652.28;;;8.11;82.71
71043;BME280;58696;52.134;5.500;2023-04-06T12:41:59;101649.41;;;8.14;82.38
71043;BME280;58696;52.134;5.500;2023-04-06T12:44:26;101646.34;;;8.10;82.63
71043;BME280;58696;52.134;5.500;2023-04-06T12:46:52;101638.94;;;8.07;82.92
71043;BME280;58696;52.134;5.500;2023-04-06T12:49:19;101642.97;;;8.10;83.47
71043;BME280;58696;52.134;5.500;2023-04-06T12:51:46;101634.94;;;8.05;83.30
71043;BME280;58696;52.134;5.500;2023-04-06T12:54:15;101636.16;;;8.01;83.70
71043;BME280;58696;52.134;5.500;2023-04-06T12:56:41;101641.94;;;8.03;83.62
71043;BME280;58696;52.134;5.500;2023-04-06T12:59:11;101634.69;;;7.98;83.98
71043;BME280;58696;52.134;5.500;2023-04-06T13:01:38;101632.28;;;7.97;84.12
71043;BME280;58696;52.134;5.500;2023-04-06T13:04:05;101629.50;;;7.90;84.55
71043;BME280;58696;52.134;5.500;2023-04-06T13:06:31;101629.34;;;7.91;84.64
71043;BME280;58696;52.134;5.500;2023-04-06T13:08:58;101627.09;;;7.88;84.73
71043;BME280;58696;52.134;5.500;2023-04-06T13:11:25;101619.69;;;7.85;85.06
71043;BME280;58696;52.134;5.500;2023-04-06T13:13:55;101620.66;;;7.84;84.92